createdAt,value
2023-02-09T00:00:06.352Z,103009.91
2023-02-09T00:02:33.616Z,103012.59
2023-02-09T00:04:59.949Z,103001.50
2023-02-09T00:07:26.324Z,102997.78
2023-02-09T00:09:52.605Z,102986.00
2023-02-09T00:12:38.331Z,102984.38
2023-02-09T00:15:05.999Z,102973.16
2023-02-09T00:17:33.566Z,102972.50
2023-02-09T00:19:59.901Z,102966.81
2023-02-09T00:22:26.403Z,102958.63
2023-02-09T00:24:52.768Z,102961.44
2023-02-09T00:27:19.429Z,102963.53
2023-02-09T00:29:45.725Z,102959.47
2023-02-09T00:32:12.163Z,102955.66
2023-02-09T00:34:38.641Z,102952.75
2023-02-09T00:37:05.193Z,102950.47
2023-02-09T00:39:31.503Z,102954.47
2023-02-09T00:42:07.049Z,102953.53
2023-02-09T00:44:37.906Z,102949.00
2023-02-09T00:47:05.364Z,102941.78
2023-02-09T00:49:31.779Z,102947.94
2023-02-09T00:51:58.089Z,102945.53
2023-02-09T00:54:24.827Z,102941.78
2023-02-09T00:56:51.206Z,102945.34
2023-02-09T00:59:17.497Z,102949.16
2023-02-09T01:01:43.792Z,102944.59
2023-02-09T01:04:10.139Z,102944.44
2023-02-09T01:06:36.469Z,102930.63
2023-02-09T01:09:03.129Z,102933.09
2023-02-09T01:11:30.277Z,102931.06
2023-02-09T01:13:57.757Z,102937.47
2023-02-09T01:16:24.490Z,102927.59
2023-02-09T01:18:50.931Z,102929.28
2023-02-09T01:21:19.222Z,102922.66
2023-02-09T01:23:46.428Z,102917.31
2023-02-09T01:26:13.729Z,102922.94
2023-02-09T01:28:40.433Z,102929.63
2023-02-09T01:31:17.401Z,102917.88
2023-02-09T01:33:43.781Z,102916.03
2023-02-09T01:36:10.115Z,102917.13
2023-02-09T01:38:36.424Z,102908.25
2023-02-09T01:41:02.738Z,102900.63
2023-02-09T01:43:29.034Z,102898.00
2023-02-09T01:45:55.524Z,102893.69
2023-02-09T01:48:24.864Z,102875.34
2023-02-09T01:50:52.518Z,102873.91
2023-02-09T01:53:19.505Z,102866.72
2023-02-09T01:55:51.373Z,102871.72
2023-02-09T01:58:19.193Z,102864.72
2023-02-09T02:00:46.433Z,102861.22
2023-02-09T02:03:15.744Z,102856.78
2023-02-09T02:05:43.896Z,102855.28
2023-02-09T02:08:26.107Z,102839.81
2023-02-09T02:10:53.017Z,102842.72
2023-02-09T02:13:19.579Z,102835.31
2023-02-09T02:15:56.454Z,102833.88
2023-02-09T02:18:31.880Z,102824.81
2023-02-09T02:20:58.156Z,102822.16
2023-02-09T02:23:35.437Z,102823.63
2023-02-09T02:26:19.786Z,102821.94
2023-02-09T02:29:01.762Z,102817.84
2023-02-09T02:31:40.473Z,102821.16
2023-02-09T02:34:27.025Z,102812.31
2023-02-09T02:37:12.283Z,102803.63
2023-02-09T02:39:38.579Z,102808.19
2023-02-09T02:42:46.793Z,102797.66
2023-02-09T02:45:21.708Z,102793.13
2023-02-09T02:47:51.987Z,102788.81
2023-02-09T02:50:22.747Z,102791.28
2023-02-09T02:52:50.519Z,102794.59
2023-02-09T02:55:18.631Z,102783.88
2023-02-09T02:57:47.185Z,102782.63
2023-02-09T03:00:16.767Z,102778.31
2023-02-09T03:02:47.529Z,102772.34
2023-02-09T03:05:14.613Z,102770.28
2023-02-09T03:07:41.610Z,102769.88
2023-02-09T03:10:26.781Z,102760.19
2023-02-09T03:13:05.058Z,102755.63
2023-02-09T03:15:51.186Z,102759.78
2023-02-09T03:18:23.418Z,102761.81
2023-02-09T03:20:52.407Z,102756.25
2023-02-09T03:23:41.932Z,102755.28
2023-02-09T03:26:12.496Z,102750.72
2023-02-09T03:28:41.124Z,102753.81
2023-02-09T03:31:08.457Z,102749.31
2023-02-09T03:33:36.972Z,102756.72
2023-02-09T03:36:07.224Z,102746.84
2023-02-09T03:38:33.496Z,102747.66
2023-02-09T03:40:59.847Z,102745.19
2023-02-09T03:43:46.127Z,102741.69
2023-02-09T03:46:12.560Z,102745.00
2023-02-09T03:48:39.070Z,102747.47
2023-02-09T03:51:06.682Z,102742.53
2023-02-09T03:53:34.614Z,102740.84
2023-02-09T03:56:00.914Z,102746.63
2023-02-09T03:58:27.261Z,102747.06
2023-02-09T04:00:53.594Z,102745.81
2023-02-09T04:03:19.894Z,102740.88
2023-02-09T04:05:46.188Z,102741.28
2023-02-09T04:08:12.522Z,102730.56
2023-02-09T04:10:38.822Z,102728.50
2023-02-09T04:13:05.092Z,102731.59
2023-02-09T04:15:31.412Z,102732.84
2023-02-09T04:17:57.692Z,102725.63
2023-02-09T04:20:23.986Z,102724.78
2023-02-09T04:22:50.321Z,102724.78
2023-02-09T04:25:16.651Z,102723.78
2023-02-09T04:27:42.926Z,102728.09
2023-02-09T04:30:09.549Z,102723.38
2023-02-09T04:32:35.831Z,102725.44
2023-02-09T04:35:02.148Z,102724.78
2023-02-09T04:37:28.573Z,102723.38
2023-02-09T04:39:54.910Z,102705.25
2023-02-09T04:42:21.177Z,102711.81
2023-02-09T04:44:47.504Z,102709.13
2023-02-09T04:47:13.788Z,102700.31
2023-02-09T04:49:42.512Z,102689.38
2023-02-09T04:52:08.852Z,102683.41
2023-02-09T04:54:35.199Z,102696.38
2023-02-09T04:57:20.175Z,102693.91
2023-02-09T04:59:46.456Z,102696.16
2023-02-09T05:02:12.735Z,102688.53
2023-02-09T05:04:39.068Z,102696.78
2023-02-09T05:07:05.331Z,102697.56
2023-02-09T05:09:31.640Z,102693.03
2023-02-09T05:11:57.933Z,102704.16
2023-02-09T05:14:24.257Z,102702.94
2023-02-09T05:16:50.647Z,102695.69
2023-02-09T05:19:16.995Z,102689.72
2023-02-09T05:21:43.286Z,102679.63
2023-02-09T05:24:09.878Z,102676.34
2023-02-09T05:26:36.455Z,102683.69
2023-02-09T05:29:02.985Z,102686.59
2023-02-09T05:31:29.399Z,102677.25
2023-02-09T05:33:55.821Z,102685.81
2023-02-09T05:36:22.117Z,102687.63
2023-02-09T05:38:48.402Z,102686.38
2023-02-09T05:41:37.447Z,102687.75
2023-02-09T05:44:04.410Z,102682.31
2023-02-09T05:46:30.791Z,102676.94
2023-02-09T05:48:57.162Z,102680.72
2023-02-09T05:51:23.508Z,102689.78
2023-02-09T05:53:52.073Z,102685.13
2023-02-09T05:56:18.411Z,102681.06
2023-02-09T05:58:44.757Z,102675.88
2023-02-09T06:01:11.037Z,102672.22
2023-02-09T06:03:37.430Z,102677.72
2023-02-09T06:06:03.859Z,102677.75
2023-02-09T06:08:30.158Z,102676.81
2023-02-09T06:10:56.473Z,102678.56
2023-02-09T06:13:22.749Z,102679.72
2023-02-09T06:15:49.115Z,102675.91
2023-02-09T06:18:15.451Z,102683.75
2023-02-09T06:20:41.737Z,102672.03
2023-02-09T06:23:08.103Z,102674.03
2023-02-09T06:25:34.453Z,102675.25
2023-02-09T06:28:01.443Z,102673.91
2023-02-09T06:30:27.746Z,102666.81
2023-02-09T06:32:54.045Z,102669.28
2023-02-09T06:35:20.342Z,102667.09
2023-02-09T06:37:46.610Z,102673.47
2023-02-09T06:40:12.941Z,102678.34
2023-02-09T06:42:45.222Z,102683.81
2023-02-09T06:45:16.190Z,102690.44
2023-02-09T06:47:43.173Z,102683.38
2023-02-09T06:50:10.323Z,102699.66
2023-02-09T06:52:36.940Z,102694.66
2023-02-09T06:55:03.566Z,102696.56
2023-02-09T06:57:30.083Z,102695.16
2023-02-09T06:59:56.438Z,102701.50
2023-02-09T07:02:22.791Z,102706.03
2023-02-09T07:04:49.085Z,102693.03
2023-02-09T07:07:15.486Z,102698.13
2023-02-09T07:09:41.913Z,102701.03
2023-02-09T07:12:08.400Z,102694.75
2023-02-09T07:14:34.880Z,102700.63
2023-02-09T07:17:01.190Z,102702.03
2023-02-09T07:19:27.520Z,102692.16
2023-02-09T07:21:53.861Z,102685.97
2023-02-09T07:24:20.194Z,102686.13
2023-02-09T07:26:46.490Z,102683.50
2023-02-09T07:29:13.023Z,102681.59
2023-02-09T07:31:39.444Z,102682.16
2023-02-09T07:34:05.812Z,102684.56
2023-02-09T07:36:32.172Z,102695.03
2023-02-09T07:38:59.525Z,102687.47
2023-02-09T07:41:26.260Z,102690.72
2023-02-09T07:43:52.657Z,102678.38
2023-02-09T07:46:21.102Z,102679.28
2023-02-09T07:48:47.928Z,102675.09
2023-02-09T07:51:19.841Z,102679.84
2023-02-09T07:53:47.246Z,102682.53
2023-02-09T07:56:13.574Z,102678.50
2023-02-09T07:58:39.928Z,102682.22
2023-02-09T08:01:07.091Z,102675.03
2023-02-09T08:03:35.324Z,102674.97
2023-02-09T08:06:03.888Z,102676.75
2023-02-09T08:08:30.398Z,102667.81
2023-02-09T08:10:58.181Z,102665.44
2023-02-09T08:13:28.512Z,102659.75
2023-02-09T08:15:57.594Z,102669.50
2023-02-09T08:18:27.771Z,102655.69
2023-02-09T08:20:54.424Z,102661.59
2023-02-09T08:23:23.471Z,102662.22
2023-02-09T08:25:51.477Z,102664.50
2023-02-09T08:28:19.215Z,102658.19
2023-02-09T08:30:45.930Z,102665.56
2023-02-09T08:33:12.236Z,102662.03
2023-02-09T08:35:38.529Z,102672.16
2023-02-09T08:38:04.934Z,102671.38
2023-02-09T08:40:31.528Z,102668.94
2023-02-09T08:42:58.271Z,102665.31
2023-02-09T08:45:24.695Z,102659.34
2023-02-09T08:47:51.189Z,102661.13
2023-02-09T08:50:17.585Z,102653.16
2023-02-09T08:52:43.941Z,102641.59
2023-02-09T08:55:10.368Z,102635.97
2023-02-09T08:57:43.889Z,102622.84
2023-02-09T09:00:11.079Z,102620.81
2023-02-09T09:02:37.470Z,102632.09
2023-02-09T09:05:03.785Z,102615.44
2023-02-09T09:07:30.070Z,102619.09
2023-02-09T09:09:56.395Z,102618.72
2023-02-09T09:12:22.714Z,102617.44
2023-02-09T09:14:49.034Z,102625.28
2023-02-09T09:17:15.506Z,102624.47
2023-02-09T09:19:41.806Z,102631.63
2023-02-09T09:22:08.086Z,102635.03
2023-02-09T09:24:40.393Z,102625.97
2023-02-09T09:27:07.990Z,102634.44
2023-02-09T09:29:35.395Z,102635.59
2023-02-09T09:32:01.916Z,102629.84
2023-02-09T09:34:28.534Z,102623.03
2023-02-09T09:36:54.834Z,102613.53
2023-02-09T09:39:21.165Z,102615.84
2023-02-09T09:41:48.844Z,102613.16
2023-02-09T09:44:17.616Z,102616.19
2023-02-09T09:46:46.691Z,102618.41
2023-02-09T09:49:27.030Z,102619.66
2023-02-09T09:51:59.289Z,102626.97
2023-02-09T09:54:27.774Z,102623.88
2023-02-09T09:56:54.413Z,102629.63
2023-02-09T09:59:26.048Z,102628.09
2023-02-09T10:01:53.463Z,102622.69
2023-02-09T10:04:20.979Z,102625.97
2023-02-09T10:06:52.298Z,102621.72
2023-02-09T10:09:27.799Z,102623.78
2023-02-09T10:12:12.950Z,102630.56
2023-02-09T10:14:39.234Z,102627.38
2023-02-09T10:17:05.966Z,102635.66
2023-02-09T10:19:32.784Z,102642.94
2023-02-09T10:21:59.154Z,102639.78
2023-02-09T10:24:29.942Z,102650.22
2023-02-09T10:27:08.496Z,102650.41
2023-02-09T10:29:35.534Z,102646.06
2023-02-09T10:32:14.793Z,102653.69
2023-02-09T10:34:44.290Z,102656.31
2023-02-09T10:37:22.642Z,102663.03
2023-02-09T10:39:55.547Z,102663.03
2023-02-09T10:42:25.050Z,102666.25
2023-02-09T10:44:53.218Z,102663.06
2023-02-09T10:47:19.511Z,102658.28
2023-02-09T10:50:04.760Z,102664.69
2023-02-09T10:52:35.781Z,102653.56
2023-02-09T10:55:05.066Z,102646.28
2023-02-09T10:57:38.262Z,102643.06
2023-02-09T11:00:16.864Z,102643.72
2023-02-09T11:02:51.024Z,102628.72
2023-02-09T11:05:20.090Z,102627.03
2023-02-09T11:07:59.078Z,102635.28
2023-02-09T11:10:27.487Z,102638.22
2023-02-09T11:12:53.796Z,102634.19
2023-02-09T11:15:23.803Z,102608.13
2023-02-09T11:17:52.985Z,102595.78
2023-02-09T11:20:42.316Z,102585.50
2023-02-09T11:23:11.512Z,102592.38
2023-02-09T11:25:56.261Z,102595.16
2023-02-09T11:28:33.079Z,102592.13
2023-02-09T11:31:11.830Z,102593.81
2023-02-09T11:33:38.214Z,102584.78
2023-02-09T11:36:23.210Z,102588.66
2023-02-09T11:38:58.801Z,102591.28
2023-02-09T11:41:47.590Z,102587.16
2023-02-09T11:44:21.452Z,102597.88
2023-02-09T11:46:49.176Z,102591.84
2023-02-09T11:49:19.441Z,102603.56
2023-02-09T11:51:47.298Z,102601.69
2023-02-09T11:54:18.462Z,102596.25
2023-02-09T11:56:48.285Z,102593.03
2023-02-09T11:59:14.575Z,102587.88
2023-02-09T12:01:52.538Z,102591.66
2023-02-09T12:04:22.622Z,102599.31
2023-02-09T12:06:50.793Z,102605.25
2023-02-09T12:09:19.931Z,102586.44
2023-02-09T12:11:57.475Z,102602.66
2023-02-09T12:14:29.944Z,102596.31
2023-02-09T12:17:05.145Z,102585.66
2023-02-09T12:19:34.461Z,102589.13
2023-02-09T12:22:19.280Z,102588.06
2023-02-09T12:25:04.124Z,102578.13
2023-02-09T12:27:30.635Z,102566.53
2023-02-09T12:29:56.919Z,102559.53
2023-02-09T12:32:24.931Z,102577.03
2023-02-09T12:34:53.759Z,102569.69
2023-02-09T12:37:27.259Z,102576.19
2023-02-09T12:40:12.052Z,102567.78
2023-02-09T12:42:40.050Z,102558.84
2023-02-09T12:45:25.367Z,102552.38
2023-02-09T12:47:56.977Z,102552.13
2023-02-09T12:50:45.878Z,102545.38
2023-02-09T12:53:27.384Z,102539.19
2023-02-09T12:56:00.895Z,102531.94
2023-02-09T12:58:54.192Z,102546.00
2023-02-09T13:01:20.726Z,102543.69
2023-02-09T13:03:47.092Z,102533.38
2023-02-09T13:06:39.634Z,102540.38
2023-02-09T13:09:09.423Z,102551.75
2023-02-09T13:11:49.689Z,102552.94
2023-02-09T13:14:18.121Z,102549.34
2023-02-09T13:16:50.319Z,102535.63
2023-02-09T13:19:48.022Z,102533.72
2023-02-09T13:22:33.432Z,102537.47
2023-02-09T13:25:17.842Z,102549.97
2023-02-09T13:27:48.473Z,102548.94
2023-02-09T13:30:25.156Z,102553.03
2023-02-09T13:32:51.502Z,102549.81
2023-02-09T13:35:28.584Z,102550.84
2023-02-09T13:37:56.479Z,102555.72
2023-02-09T13:40:24.580Z,102569.63
2023-02-09T13:43:03.039Z,102554.72
2023-02-09T13:45:29.917Z,102562.84
2023-02-09T13:47:59.013Z,102565.00
2023-02-09T13:50:28.184Z,102576.72
2023-02-09T13:52:54.494Z,102574.28
2023-02-09T13:55:25.271Z,102556.34
2023-02-09T13:57:59.793Z,102560.19
2023-02-09T14:00:29.679Z,102548.75
2023-02-09T14:03:01.684Z,102538.44
2023-02-09T14:05:28.056Z,102557.94
2023-02-09T14:07:54.952Z,102563.84
2023-02-09T14:10:21.593Z,102574.53
2023-02-09T14:13:03.605Z,102583.69
2023-02-09T14:15:59.372Z,102583.13
2023-02-09T14:18:33.443Z,102576.88
2023-02-09T14:20:59.869Z,102579.38
2023-02-09T14:23:27.553Z,102571.91
2023-02-09T14:26:02.838Z,102583.84
2023-02-09T14:28:29.206Z,102576.69
2023-02-09T14:30:55.735Z,102588.16
2023-02-09T14:33:24.850Z,102567.50
2023-02-09T14:35:55.561Z,102548.25
2023-02-09T14:38:36.770Z,102539.03
2023-02-09T14:41:21.906Z,102536.84
2023-02-09T14:44:06.479Z,102538.78
2023-02-09T14:46:48.454Z,102544.00
2023-02-09T14:49:14.923Z,102540.19
2023-02-09T14:51:41.674Z,102535.00
2023-02-09T14:54:16.946Z,102534.59
2023-02-09T14:56:43.344Z,102542.16
2023-02-09T14:59:15.666Z,102550.84
2023-02-09T15:01:42.069Z,102539.31
2023-02-09T15:04:08.482Z,102547.38
2023-02-09T15:06:35.976Z,102540.22
2023-02-09T15:09:05.153Z,102537.97
2023-02-09T15:11:50.067Z,102536.88
2023-02-09T15:14:16.719Z,102528.03
2023-02-09T15:16:43.005Z,102518.97
2023-02-09T15:19:14.798Z,102514.97
2023-02-09T15:21:41.143Z,102511.09
2023-02-09T15:24:07.560Z,102503.81
2023-02-09T15:26:35.631Z,102489.06
2023-02-09T15:29:02.286Z,102486.31
2023-02-09T15:31:28.850Z,102492.91
2023-02-09T15:33:55.341Z,102489.00
2023-02-09T15:36:28.876Z,102491.66
2023-02-09T15:38:55.663Z,102506.75
2023-02-09T15:41:40.578Z,102502.97
2023-02-09T15:44:37.930Z,102502.78
2023-02-09T15:47:23.287Z,102512.31
2023-02-09T15:49:49.787Z,102503.22
2023-02-09T15:52:17.859Z,102482.06
2023-02-09T15:54:44.590Z,102504.22
2023-02-09T15:57:12.030Z,102498.81
2023-02-09T15:59:38.446Z,102499.59
2023-02-09T16:02:10.729Z,102492.38
2023-02-09T16:04:37.077Z,102486.31
2023-02-09T16:07:03.454Z,102484.47
2023-02-09T16:09:30.848Z,102489.88
2023-02-09T16:11:57.393Z,102481.47
2023-02-09T16:14:26.541Z,102489.19
2023-02-09T16:16:53.178Z,102485.22
2023-02-09T16:19:20.554Z,102480.38
2023-02-09T16:21:49.475Z,102490.38
2023-02-09T16:24:22.559Z,102485.94
2023-02-09T16:26:48.964Z,102512.59
2023-02-09T16:29:15.955Z,102520.50
2023-02-09T16:31:42.367Z,102506.31
2023-02-09T16:34:12.506Z,102517.88
2023-02-09T16:36:38.826Z,102514.44
2023-02-09T16:39:06.159Z,102525.47
2023-02-09T16:41:48.227Z,102526.00
2023-02-09T16:44:22.244Z,102517.81
2023-02-09T16:46:50.438Z,102527.13
2023-02-09T16:49:27.563Z,102518.31
2023-02-09T16:51:56.154Z,102521.53
2023-02-09T16:54:22.538Z,102514.31
2023-02-09T16:56:54.042Z,102515.44
2023-02-09T16:59:21.058Z,102515.53
2023-02-09T17:01:48.736Z,102510.63
2023-02-09T17:04:15.337Z,102519.19
2023-02-09T17:06:41.709Z,102519.31
2023-02-09T17:09:15.296Z,102510.03
2023-02-09T17:11:41.720Z,102514.50
2023-02-09T17:14:08.230Z,102518.06
2023-02-09T17:16:36.843Z,102522.81
2023-02-09T17:21:42.226Z,102523.91
2023-02-09T17:24:13.168Z,102537.72
2023-02-09T17:26:40.508Z,102540.81
2023-02-09T17:29:07.146Z,102543.31
2023-02-09T17:31:47.100Z,102543.41
2023-02-09T17:34:18.853Z,102534.66
2023-02-09T17:36:45.356Z,102531.16
2023-02-09T17:39:11.960Z,102535.47
2023-02-09T17:41:43.151Z,102532.03
2023-02-09T17:44:22.309Z,102530.22
2023-02-09T17:46:56.003Z,102522.53
2023-02-09T17:49:22.443Z,102529.56
2023-02-09T17:51:49.267Z,102538.50
2023-02-09T17:54:18.676Z,102530.22
2023-02-09T17:56:45.417Z,102531.16
2023-02-09T17:59:13.243Z,102535.81
2023-02-09T18:01:55.062Z,102528.28
2023-02-09T18:04:22.827Z,102529.81
2023-02-09T18:06:49.492Z,102530.72
2023-02-09T18:09:15.920Z,102535.56
2023-02-09T18:11:45.323Z,102532.38
2023-02-09T18:14:15.421Z,102526.31
2023-02-09T18:16:42.662Z,102518.47
2023-02-09T18:19:09.611Z,102511.59
2023-02-09T18:21:35.978Z,102515.09
2023-02-09T18:24:02.498Z,102517.63
2023-02-09T18:26:28.844Z,102514.84
2023-02-09T18:28:55.242Z,102519.13
2023-02-09T18:31:21.628Z,102521.41
2023-02-09T18:33:47.996Z,102517.38
2023-02-09T18:36:14.857Z,102502.91
2023-02-09T18:38:41.586Z,102499.63
2023-02-09T18:41:11.502Z,102504.19
2023-02-09T18:43:37.843Z,102496.03
2023-02-09T18:46:04.365Z,102498.72
2023-02-09T18:48:30.814Z,102493.75
2023-02-09T18:50:57.108Z,102495.69
2023-02-09T18:53:23.434Z,102496.19
2023-02-09T18:55:53.081Z,102498.41
2023-02-09T18:58:19.505Z,102501.75
2023-02-09T19:00:45.905Z,102494.06
2023-02-09T19:03:13.718Z,102501.03
2023-02-09T19:05:40.974Z,102496.09
2023-02-09T19:08:07.524Z,102487.13
2023-02-09T19:10:35.809Z,102483.50
2023-02-09T19:13:02.967Z,102489.66
2023-02-09T19:15:38.808Z,102494.56
2023-02-09T19:18:05.187Z,102492.59
2023-02-09T19:20:31.913Z,102499.31
2023-02-09T19:22:58.420Z,102517.47
2023-02-09T19:25:25.984Z,102502.00
2023-02-09T19:27:52.736Z,102507.66
2023-02-09T19:30:24.731Z,102507.41
2023-02-09T19:32:52.334Z,102497.31
2023-02-09T19:35:21.989Z,102498.97
2023-02-09T19:37:52.258Z,102503.38
2023-02-09T19:40:21.701Z,102497.81
2023-02-09T19:42:48.347Z,102495.59
2023-02-09T19:45:14.871Z,102491.03
2023-02-09T19:47:41.301Z,102491.84
2023-02-09T19:50:07.671Z,102484.31
2023-02-09T19:52:37.218Z,102479.16
2023-02-09T19:55:04.314Z,102480.56
2023-02-09T19:57:30.697Z,102472.22
2023-02-09T19:59:57.066Z,102479.50
2023-02-09T20:02:23.466Z,102481.63
2023-02-09T20:04:49.788Z,102478.75
2023-02-09T20:07:16.174Z,102477.88
2023-02-09T20:09:42.522Z,102476.47
2023-02-09T20:12:09.006Z,102475.88
2023-02-09T20:14:35.327Z,102475.06
2023-02-09T20:17:01.642Z,102474.78
2023-02-09T20:19:28.057Z,102469.91
2023-02-09T20:21:54.365Z,102477.38
2023-02-09T20:24:20.696Z,102478.19
2023-02-09T20:26:48.042Z,102468.88
2023-02-09T20:29:16.621Z,102465.25
2023-02-09T20:31:42.968Z,102467.38
2023-02-09T20:34:11.473Z,102467.38
2023-02-09T20:36:39.671Z,102478.50
2023-02-09T20:39:07.258Z,102482.28
2023-02-09T20:41:33.579Z,102475.06
2023-02-09T20:44:18.408Z,102494.63
2023-02-09T20:46:57.368Z,102490.28
2023-02-09T20:49:29.288Z,102481.16
2023-02-09T20:51:55.609Z,102494.22
2023-02-09T20:54:21.936Z,102505.66
2023-02-09T20:56:48.293Z,102509.88
2023-02-09T20:59:14.813Z,102501.94
2023-02-09T21:01:41.746Z,102498.97
2023-02-09T21:04:08.696Z,102501.69
2023-02-09T21:06:38.602Z,102505.84
2023-02-09T21:09:05.595Z,102500.69
2023-02-09T21:11:32.030Z,102499.38
2023-02-09T21:13:58.516Z,102498.72
2023-02-09T21:16:25.540Z,102507.16
2023-02-09T21:18:55.778Z,102512.91
2023-02-09T21:21:22.290Z,102505.50
2023-02-09T21:23:48.722Z,102512.31
2023-02-09T21:26:16.501Z,102507.50
2023-02-09T21:28:43.749Z,102511.56
2023-02-09T21:31:11.794Z,102503.22
2023-02-09T21:33:38.256Z,102504.38
2023-02-09T21:36:05.267Z,102500.50
2023-02-09T21:38:31.720Z,102495.19
2023-02-09T21:40:58.044Z,102504.03
2023-02-09T21:43:24.367Z,102514.94
2023-02-09T21:45:50.717Z,102509.91
2023-02-09T21:48:17.030Z,102509.09
2023-02-09T21:50:43.346Z,102514.81
2023-02-09T21:53:09.619Z,102519.75
2023-02-09T21:55:36.211Z,102526.94
2023-02-09T21:58:02.519Z,102526.94
2023-02-09T22:00:30.672Z,102538.53
2023-02-09T22:02:57.065Z,102531.19
2023-02-09T22:05:23.366Z,102533.06
2023-02-09T22:07:49.978Z,102530.94
2023-02-09T22:10:20.264Z,102526.34
2023-02-09T22:12:46.583Z,102522.13
2023-02-09T22:15:12.949Z,102525.59
2023-02-09T22:17:39.307Z,102532.78
2023-02-09T22:20:06.484Z,102537.00
2023-02-09T22:22:32.830Z,102536.25
2023-02-09T22:24:59.144Z,102532.84
2023-02-09T22:27:25.777Z,102534.72
2023-02-09T22:29:52.065Z,102526.94
2023-02-09T22:32:20.288Z,102536.19
2023-02-09T22:34:46.619Z,102543.16
2023-02-09T22:37:12.916Z,102542.91
2023-02-09T22:39:39.192Z,102536.38
2023-02-09T22:42:05.657Z,102539.00
2023-02-09T22:44:33.346Z,102539.84
2023-02-09T22:46:59.686Z,102541.28
2023-02-09T22:49:26.027Z,102532.34
2023-02-09T22:51:52.438Z,102532.84
2023-02-09T22:54:19.544Z,102539.06
2023-02-09T22:56:46.318Z,102532.38
2023-02-09T22:59:13.706Z,102547.13
2023-02-09T23:01:40.337Z,102535.19
2023-02-09T23:04:06.848Z,102540.34
2023-02-09T23:06:33.314Z,102543.19
2023-02-09T23:09:01.259Z,102547.13
2023-02-09T23:11:29.034Z,102538.56
2023-02-09T23:14:10.975Z,102543.88
2023-02-09T23:16:38.401Z,102539.50
2023-02-09T23:19:06.498Z,102545.69
2023-02-09T23:21:34.572Z,102544.47
2023-02-09T23:24:00.929Z,102548.97
2023-02-09T23:26:27.498Z,102545.91
2023-02-09T23:28:57.120Z,102542.81
2023-02-09T23:31:24.033Z,102546.47
2023-02-09T23:33:50.413Z,102551.56
2023-02-09T23:36:19.332Z,102555.34
2023-02-09T23:38:46.523Z,102563.53
2023-02-09T23:41:16.827Z,102560.44
2023-02-09T23:43:43.468Z,102556.63
2023-02-09T23:46:14.171Z,102564.78
2023-02-09T23:48:40.990Z,102566.19
2023-02-09T23:51:11.112Z,102565.44
2023-02-09T23:53:37.470Z,102565.03
2023-02-09T23:56:04.156Z,102575.47
2023-02-09T23:58:36.170Z,102561.41
